Sheldon, IA

11:55 PM CDT on October 16, 2017 (GMT -0500)
Sheldon Municipal

Weather History for KSHL - April, 2014

Change the Weather History Date:

Tuesday, April 1, 2014

  Actual Average Record
Temperature  
Mean Temperature 28 °F -  
Max Temperature 41 °F 50 °F 91 °F (2012)
Min Temperature 15 °F 28 °F 10 °F (1975)
Degree Days  
Heating Degree Days 37    
Moisture  
Dew Point 16 °F    
Average Humidity 65    
Maximum Humidity 86    
Minimum Humidity 45    
Precipitation  
Precipitation 0.00 in - - ()
Sea Level Pressure  
Sea Level Pressure 29.98 in    
Wind  
Wind Speed 20 mph (NW)    
Max Wind Speed 34 mph    
Max Gust Speed 50 mph    
Visibility 10 miles    
Events Snow    
Averages and records for this station are not official NWS values.
T = Trace of Precipitation, MM = Missing Value Source: NWS Daily Summary

Daily Weather History Graph

Daily Weather History Graph

Search for Another Location

Airport or City:

Trip Planner

Search our weather history database for the weather conditions in past years. The results will help you decide how hot, cold, wet, or windy it might be!

Date:

Astronomy

Apr. 01, 2014 Rise Set
Actual Time 7:05 AM CDT 7:49 PM CDT
Civil Twilight 6:36 AM CDT 8:18 PM CDT
Nautical Twilight 6:02 AM CDT 8:52 PM CDT
Astronomical Twilight 5:26 AM CDT 9:28 PM CDT
Moon 8:05 AM CDT (4/1) 10:17 PM CDT (4/1)
Length of Visible Light 13h 42m
Length of Day
12h 44m
Waxing Crescent, 5% of the Moon is Illuminated
Apr 1
Waxing Crescent
Apr 7
First Quarter
Apr 15
Full
Apr 22
Last Quarter
Apr 29
New

Hourly Weather History & Observations

Time (CDT) Temp. Windchill Dew Point Humidity Pressure Visibility Wind Dir Wind Speed Gust Speed Precip Events Conditions
12:15 AM 17.6 °F -1.9 °F 10.4 °F 73% 29.73 in 9.0 mi WNW 29.9 mph 40.3 mph N/A Snow Light Snow
12:35 AM 17.6 °F -2.2 °F 10.4 °F 73% 29.74 in 9.0 mi WNW 31.1 mph 43.7 mph N/A Snow Light Snow
1:15 AM 17.6 °F -1.6 °F 10.4 °F 73% 29.76 in 9.0 mi WNW 28.8 mph 47.2 mph N/A Snow Light Snow
1:35 AM 17.6 °F -3.1 °F 10.4 °F 73% 29.77 in 9.0 mi WNW 34.5 mph 43.7 mph N/A Snow Light Snow
1:55 AM 19.4 °F 0.2 °F 10.4 °F 68% 29.78 in 10.0 mi NW 31.1 mph 49.5 mph N/A   Overcast
2:15 AM 17.6 °F -1.0 °F 10.4 °F 73% 29.79 in 10.0 mi WNW 26.5 mph 43.7 mph N/A   Overcast
2:35 AM 17.6 °F -1.6 °F 10.4 °F 73% 29.80 in 10.0 mi NW 28.8 mph 41.4 mph N/A   Overcast
2:55 AM 17.6 °F 0.9 °F 10.4 °F 73% 29.81 in 10.0 mi WNW 20.7 mph 41.4 mph N/A   Overcast
3:15 AM 17.6 °F -3.1 °F 10.4 °F 73% 29.80 in 8.0 mi WNW 34.5 mph 42.6 mph N/A Snow Light Snow
3:35 AM 17.6 °F -1.9 °F 10.4 °F 73% 29.82 in 8.0 mi NW 29.9 mph 43.7 mph N/A Snow Light Snow
3:55 AM 17.6 °F -1.0 °F 10.4 °F 73% 29.84 in 9.0 mi WNW 26.5 mph 34.5 mph N/A   Overcast
4:15 AM 17.6 °F -0.6 °F 10.4 °F 73% 29.86 in 10.0 mi WNW 25.3 mph 32.2 mph N/A   Overcast
4:35 AM 17.6 °F 0.9 °F 10.4 °F 73% 29.87 in 10.0 mi WNW 20.7 mph 31.1 mph N/A   Overcast
4:55 AM 17.6 °F 0.9 °F 10.4 °F 73% 29.88 in 10.0 mi NW 20.7 mph 33.4 mph N/A   Mostly Cloudy
5:15 AM 17.6 °F 0.5 °F 10.4 °F 73% 29.89 in 10.0 mi WNW 21.9 mph 29.9 mph N/A   Overcast
5:35 AM 17.6 °F 0.5 °F 10.4 °F 73% 29.91 in 10.0 mi WNW 21.9 mph 29.9 mph N/A   Overcast
5:55 AM 17.6 °F 0.9 °F 10.4 °F 73% 29.91 in 10.0 mi WNW 20.7 mph 28.8 mph N/A   Overcast
6:15 AM 15.8 °F -1.5 °F 10.4 °F 79% 29.91 in 10.0 mi NW 20.7 mph 28.8 mph N/A   Overcast
6:35 AM 15.8 °F 0.9 °F 10.4 °F 79% 29.92 in 10.0 mi WNW 15.0 mph 21.9 mph N/A   Overcast
6:55 AM 15.8 °F -1.5 °F 10.4 °F 79% 29.93 in 10.0 mi NW 20.7 mph - N/A   Overcast
7:15 AM 15.8 °F 0.3 °F 10.4 °F 79% 29.94 in 10.0 mi WNW 16.1 mph 24.2 mph N/A   Mostly Cloudy
7:35 AM 17.6 °F 3.7 °F 10.4 °F 73% 29.96 in 10.0 mi West 13.8 mph - N/A   Mostly Cloudy
7:55 AM 17.6 °F 4.3 °F 10.4 °F 73% 29.97 in 10.0 mi WNW 12.7 mph 19.6 mph N/A   Overcast
8:15 AM 17.6 °F 2.2 °F 10.4 °F 73% 29.97 in 10.0 mi WNW 17.3 mph - N/A   Mostly Cloudy
8:35 AM 19.4 °F 4.5 °F 10.4 °F 68% 29.99 in 10.0 mi WNW 17.3 mph 25.3 mph N/A   Mostly Cloudy
8:55 AM 19.4 °F 4.5 °F 10.4 °F 68% 30.00 in 10.0 mi WNW 17.3 mph 28.8 mph N/A   Mostly Cloudy
9:15 AM 21.2 °F 6.8 °F 10.4 °F 63% 30.00 in 10.0 mi WNW 17.3 mph 24.2 mph N/A   Mostly Cloudy
9:35 AM 21.2 °F 6.0 °F 12.2 °F 68% 30.01 in 10.0 mi NW 19.6 mph - N/A   Partly Cloudy
9:55 AM 23.0 °F 8.3 °F 12.2 °F 63% 30.00 in 10.0 mi NW 19.6 mph 27.6 mph N/A   Clear
10:15 AM 24.8 °F 12.4 °F 12.2 °F 59% 30.02 in 10.0 mi WNW 15.0 mph 25.3 mph N/A   Clear
10:35 AM 24.8 °F 11.1 °F 14.0 °F 64% 30.02 in 10.0 mi NW 18.4 mph 25.3 mph N/A   Clear
10:55 AM 26.6 °F 14.7 °F 14.0 °F 59% 30.03 in 10.0 mi WNW 15.0 mph - N/A   Clear
11:15 AM 28.4 °F 16.6 °F 14.0 °F 55% 30.04 in 10.0 mi WNW 16.1 mph 23.0 mph N/A   Clear
11:35 AM 28.4 °F 17.5 °F 14.0 °F 55% 30.04 in 10.0 mi West 13.8 mph 21.9 mph N/A   Clear
11:55 AM 30.2 °F 18.5 °F 15.8 °F 55% 30.04 in 10.0 mi WNW 17.3 mph - N/A   Clear
12:15 PM 30.2 °F 19.8 °F 15.8 °F 55% 30.04 in 10.0 mi NW 13.8 mph 20.7 mph N/A   Clear
12:35 PM 32.0 °F 21.2 °F 15.8 °F 51% 30.03 in 10.0 mi NW 16.1 mph - N/A   Clear
12:55 PM 33.8 °F 24.3 °F 17.6 °F 52% 30.03 in 10.0 mi NW 13.8 mph - N/A   Clear
1:15 PM 35.6 °F 26.6 °F 17.6 °F 48% 30.02 in 10.0 mi WNW 13.8 mph 23.0 mph N/A   Clear
1:35 PM 37.4 °F 28.2 °F 19.4 °F 48% 30.02 in 10.0 mi NNW 16.1 mph 24.2 mph N/A   Clear
1:55 PM 37.4 °F 29.3 °F 19.4 °F 48% 30.02 in 10.0 mi WNW 12.7 mph - N/A   Clear
2:15 PM 39.2 °F 31.6 °F 19.4 °F 45% 30.03 in 10.0 mi NW 12.7 mph 18.4 mph N/A   Clear
2:35 PM 39.2 °F 31.2 °F 19.4 °F 45% 30.02 in 10.0 mi NNW 13.8 mph - N/A   Clear
2:55 PM 39.2 °F 31.6 °F 19.4 °F 45% 30.02 in 10.0 mi WNW 12.7 mph 19.6 mph N/A   Clear
3:15 PM 41.0 °F 34.3 °F 21.2 °F 45% 30.02 in 10.0 mi NW 11.5 mph 17.3 mph N/A   Clear
3:35 PM 41.0 °F 35.2 °F 21.2 °F 45% 30.02 in 10.0 mi NNW 9.2 mph 18.4 mph N/A   Clear
3:55 PM 41.0 °F 33.5 °F 21.2 °F 45% 30.01 in 10.0 mi NW 13.8 mph - N/A   Clear
4:15 PM 39.2 °F 33.0 °F 21.2 °F 49% 30.01 in 10.0 mi WNW 9.2 mph 16.1 mph N/A   Clear
4:35 PM 41.0 °F 34.7 °F 21.2 °F 45% 30.01 in 10.0 mi NW 10.4 mph - N/A   Clear
4:55 PM 39.2 °F 32.0 °F 21.2 °F 49% 30.02 in 10.0 mi NW 11.5 mph 17.3 mph N/A   Partly Cloudy
5:15 PM 37.4 °F 29.3 °F 21.2 °F 52% 30.03 in 10.0 mi NNW 12.7 mph - N/A   Partly Cloudy
5:35 PM 37.4 °F 30.3 °F 21.2 °F 52% 30.04 in 10.0 mi NW 10.4 mph - N/A   Mostly Cloudy
5:55 PM 37.4 °F 30.3 °F 21.2 °F 52% 30.04 in 10.0 mi NNW 10.4 mph - N/A   Overcast
6:15 PM 35.6 °F 28.0 °F 21.2 °F 56% 30.05 in 10.0 mi NNW 10.4 mph - N/A   Mostly Cloudy
6:35 PM 35.6 °F 28.0 °F 21.2 °F 56% 30.05 in 10.0 mi NNW 10.4 mph - N/A   Overcast
6:55 PM 35.6 °F 28.0 °F 21.2 °F 56% 30.05 in 10.0 mi NNW 10.4 mph - N/A   Overcast
7:15 PM 35.6 °F 28.0 °F 23.0 °F 60% 30.05 in 10.0 mi North 10.4 mph - N/A   Overcast
7:35 PM 33.8 °F 26.4 °F 23.0 °F 65% 30.05 in 10.0 mi North 9.2 mph - N/A   Overcast
7:55 PM 33.8 °F 25.8 °F 23.0 °F 65% 30.05 in 10.0 mi North 10.4 mph - N/A   Overcast
8:15 PM 32.0 °F 25.6 °F 23.0 °F 69% 30.05 in 10.0 mi North 6.9 mph - N/A   Overcast
8:35 PM 32.0 °F 25.6 °F 23.0 °F 69% 30.05 in 10.0 mi North 6.9 mph - N/A   Overcast
8:55 PM 32.0 °F 24.2 °F 23.0 °F 69% 30.05 in 10.0 mi North 9.2 mph - N/A   Overcast
9:15 PM 32.0 °F 23.6 °F 23.0 °F 69% 30.06 in 10.0 mi North 10.4 mph - N/A   Overcast
9:35 PM 32.0 °F 24.8 °F 23.0 °F 69% 30.05 in 10.0 mi NNE 8.1 mph - N/A   Overcast
9:55 PM 32.0 °F - 23.0 °F 69% 30.07 in 10.0 mi Calm Calm - N/A   Overcast
10:15 PM 28.4 °F 22.2 °F 21.2 °F 74% 30.08 in 10.0 mi WNW 5.8 mph - N/A   Overcast
10:35 PM 26.6 °F 20.0 °F 21.2 °F 80% 30.09 in 10.0 mi West 5.8 mph - N/A   Overcast
10:55 PM 24.8 °F - 21.2 °F 86% 30.09 in 10.0 mi Calm Calm - N/A   Overcast
11:15 PM 24.8 °F 19.1 °F 21.2 °F 86% 30.10 in 10.0 mi WNW 4.6 mph - N/A   Overcast
11:35 PM 24.8 °F - 19.4 °F 80% 30.10 in 10.0 mi Calm Calm - N/A   Overcast
11:55 PM 23.0 °F 14.7 °F 19.4 °F 86% 30.10 in 10.0 mi North 6.9 mph - N/A   Mostly Cloudy